Airfield :
LOGIN :

Register | Disclaimer

   EN    FR    IT 

 










Legend :    VFR   Marginal VFR   IFR   Intensive IFR   Very Intensive IFR
Visi :
Ceiling :
>= 8 km
>= 3000ft
5 to 8 km
1000 to 3000 ft
1500m to 5 km
500 to 1000 ft
800 to 1500m
200 to 500 ft
< 800m
< 200 ft
Symbols :   Thunderstorms  Fog  Heavy snow  Heavy precipitations  Wind > 20 kt
SIGMETs :     Misc.  Thunderstorms  Icing  Turbulence  Mountain Waves  Volcanic Ashes






- Airport Elevation : 1325 ft
- IATA code : EBU


LFMH - St-Etienne Boutheon

CURRENT METAR :
  • 222300Z AUTO VRB02KT 9999 BKN038 BKN048 OVC054 04/00 Q1004

EXPIRED METARs :
  • 222230Z AUTO 01003KT 9999 FEW036 OVC056 04/00 Q1003
  • 222200Z AUTO 35005KT 320V020 9999 BKN037 OVC052 04/00 Q1003
  • 222130Z AUTO 34005KT 310V010 9999 FEW041 OVC048 04/00 Q1003
  • 222100Z AUTO 35007KT 310V010 9999 FEW036 BKN047 OVC170 04/M00 Q1002
  • 222030Z AUTO 33007KT 300V360 9999 FEW039 OVC170 04/M01 Q1002

TAF TAF LFMH
Valid from the 22 at 18:00 until the 23 at 18:00 UTC


221700Z 2218/2318 34012KT 9999 BKN040
TEMPO 2218/2220 34015G25KT -RA
BECMG 2220/2222 VRB03KT
PROB40
TEMPO 2222/2302 BKN012 BKN040
FM230200 18008KT CAVOK
BECMG 2309/2311 25012KT
TEMPO 2311/2317 25020G30KT -SHRA BKN040TCU
ATIS : +33 4 77 36 17 51



MET'MAP, your aeronautical weather chart ! - Copyright ORBIFLY December 2007 - Disclaimer

ORBIFLY MET'MAP TEAM :

Programming & Development : Alexandra Zaïnal
Concept & original design : Baudouin d'Aumeries
Assistance for programming : Marc-Olivier Méhu
Technical & hardware support : Manuel Goepfert

Contact : metmap@orbifly.com




SOURCES & CREDITS :

   NOAA